createdAt,value
2018-05-17T00:02:12.076Z,15.83
2018-05-17T00:04:39.548Z,16.10
2018-05-17T00:07:06.996Z,15.80
2018-05-17T00:09:34.473Z,15.30
2018-05-17T00:12:01.924Z,14.30
2018-05-17T00:14:29.388Z,14.77
2018-05-17T00:16:57.612Z,16.03
2018-05-17T00:19:25.068Z,15.33
2018-05-17T00:21:52.520Z,17.17
2018-05-17T00:24:19.977Z,16.63
2018-05-17T00:26:48.306Z,17.23
2018-05-17T00:29:15.790Z,16.27
2018-05-17T00:31:43.228Z,18.03
2018-05-17T00:34:10.689Z,17.50
2018-05-17T00:36:38.153Z,16.80
2018-05-17T00:39:05.624Z,15.60
2018-05-17T00:41:33.851Z,15.50
2018-05-17T00:44:01.305Z,16.20
2018-05-17T00:46:28.774Z,15.13
2018-05-17T00:48:56.298Z,14.57
2018-05-17T00:51:24.539Z,14.37
2018-05-17T00:53:51.987Z,13.97
2018-05-17T00:56:19.462Z,15.63
2018-05-17T00:58:46.914Z,14.27
2018-05-17T01:01:15.212Z,11.10
2018-05-17T01:03:42.661Z,8.83
2018-05-17T01:06:10.894Z,10.27
2018-05-17T01:08:38.350Z,9.77
2018-05-17T01:11:05.808Z,10.53
2018-05-17T01:13:33.273Z,13.07
2018-05-17T01:16:00.746Z,16.67
2018-05-17T01:18:28.197Z,21.20
2018-05-17T01:20:55.665Z,22.53
2018-05-17T01:23:23.121Z,24.00
2018-05-17T01:25:51.359Z,24.27
2018-05-17T01:28:18.834Z,25.37
2018-05-17T01:30:46.293Z,27.23
2018-05-17T01:33:13.861Z,31.67
2018-05-17T01:35:41.309Z,34.97
2018-05-17T01:38:20.720Z,33.90
2018-05-17T01:40:48.174Z,34.27
2018-05-17T01:43:15.636Z,34.63
2018-05-17T01:45:43.088Z,35.07
2018-05-17T01:48:10.549Z,35.47
2018-05-17T01:50:38.145Z,38.00
2018-05-17T01:53:05.753Z,39.77
2018-05-17T01:55:33.200Z,41.40
2018-05-17T01:58:00.742Z,43.60
2018-05-17T02:00:28.201Z,44.93
2018-05-17T02:02:55.669Z,43.37
2018-05-17T02:05:23.124Z,45.97
2018-05-17T02:07:50.609Z,41.60
2018-05-17T02:10:18.079Z,46.90
2018-05-17T02:12:45.550Z,46.13
2018-05-17T02:15:13.003Z,51.57
2018-05-17T02:17:40.476Z,51.00
2018-05-17T02:20:07.940Z,50.97
2018-05-17T02:22:35.408Z,48.90
2018-05-17T02:25:02.860Z,49.67
2018-05-17T02:27:31.094Z,49.27
2018-05-17T02:29:58.554Z,51.43
2018-05-17T02:32:26.024Z,49.13
2018-05-17T02:34:53.503Z,51.57
2018-05-17T02:37:20.941Z,48.23
2018-05-17T02:39:48.412Z,52.63
2018-05-17T02:42:15.874Z,52.60
2018-05-17T02:44:43.343Z,48.73
2018-05-17T02:47:10.793Z,50.03
2018-05-17T02:49:39.029Z,46.83
2018-05-17T02:52:06.484Z,47.67
2018-05-17T02:54:33.955Z,50.30
2018-05-17T02:57:01.418Z,49.50
2018-05-17T02:59:28.881Z,48.67
2018-05-17T03:01:56.337Z,42.67
2018-05-17T03:04:23.811Z,46.23
2018-05-17T03:06:51.268Z,47.30
2018-05-17T03:09:19.488Z,44.50
2018-05-17T03:11:47.039Z,40.80
2018-05-17T03:14:14.497Z,40.27
2018-05-17T03:16:42.715Z,39.67
2018-05-17T03:19:10.175Z,38.90
2018-05-17T03:21:37.622Z,41.70
2018-05-17T03:24:05.088Z,37.97
2018-05-17T03:26:33.299Z,42.97
2018-05-17T03:29:00.773Z,43.27
2018-05-17T03:31:28.219Z,42.73
2018-05-17T03:33:55.684Z,44.50
2018-05-17T03:36:23.904Z,46.20
2018-05-17T03:38:51.362Z,41.67
2018-05-17T03:41:18.888Z,46.63
2018-05-17T03:43:46.344Z,43.27
2018-05-17T03:46:13.799Z,37.10
2018-05-17T03:48:41.255Z,37.10
2018-05-17T03:51:08.716Z,37.30
2018-05-17T03:53:36.173Z,37.07
2018-05-17T03:56:03.636Z,34.57
2018-05-17T03:58:31.080Z,35.37
2018-05-17T04:01:11.214Z,32.43
2018-05-17T04:03:50.544Z,30.90
2018-05-17T04:06:29.973Z,29.60
2018-05-17T04:08:57.428Z,28.63
2018-05-17T04:11:24.901Z,28.63
2018-05-17T04:13:52.446Z,27.93
2018-05-17T04:16:20.567Z,27.47
2018-05-17T04:18:48.020Z,28.60
2018-05-17T04:21:16.247Z,27.30
2018-05-17T04:23:43.716Z,25.80
2018-05-17T04:26:11.162Z,25.87
2018-05-17T04:28:38.627Z,24.53
2018-05-17T04:31:06.096Z,26.17
2018-05-17T04:33:33.539Z,23.77
2018-05-17T04:36:01.815Z,23.37
2018-05-17T04:38:29.318Z,25.17
2018-05-17T04:40:56.771Z,25.03
2018-05-17T04:43:25.001Z,20.77
2018-05-17T04:45:52.482Z,22.77
2018-05-17T04:48:19.923Z,21.20
2018-05-17T04:50:47.381Z,20.20
2018-05-17T04:53:14.839Z,22.43
2018-05-17T04:55:43.047Z,20.63
2018-05-17T04:58:10.507Z,21.47
2018-05-17T05:00:37.979Z,20.43
2018-05-17T05:03:05.455Z,21.93
2018-05-17T05:05:32.917Z,22.23
2018-05-17T05:08:00.377Z,22.70
2018-05-17T05:10:27.828Z,21.80
2018-05-17T05:12:56.054Z,22.73
2018-05-17T05:15:23.504Z,23.53
2018-05-17T05:17:50.959Z,23.33
2018-05-17T05:20:19.178Z,22.50
2018-05-17T05:22:46.628Z,23.37
2018-05-17T05:25:14.112Z,21.87
2018-05-17T05:27:42.309Z,22.97
2018-05-17T05:30:09.759Z,22.63
2018-05-17T05:32:37.232Z,21.13
2018-05-17T05:35:04.697Z,22.20
2018-05-17T05:37:32.180Z,23.10
2018-05-17T05:39:59.603Z,22.03
2018-05-17T05:42:27.832Z,22.97
2018-05-17T05:44:55.305Z,23.13
2018-05-17T05:47:22.774Z,22.83
2018-05-17T05:49:50.223Z,21.20
2018-05-17T05:52:17.695Z,22.90
2018-05-17T05:54:45.148Z,23.60
2018-05-17T05:57:13.366Z,21.70
2018-05-17T05:59:40.821Z,22.77
2018-05-17T06:02:08.277Z,22.53
2018-05-17T06:04:35.746Z,23.23
2018-05-17T06:07:03.192Z,24.33
2018-05-17T06:09:31.618Z,22.60
2018-05-17T06:11:59.099Z,22.87
2018-05-17T06:14:26.559Z,23.37
2018-05-17T06:16:54.025Z,23.10
2018-05-17T06:19:21.504Z,25.83
2018-05-17T06:21:48.956Z,24.57
2018-05-17T06:24:16.420Z,25.80
2018-05-17T06:26:43.866Z,29.27
2018-05-17T06:29:11.322Z,24.80
2018-05-17T06:31:38.775Z,25.23
2018-05-17T06:34:06.278Z,25.63
2018-05-17T06:36:33.751Z,24.53
2018-05-17T06:39:01.996Z,26.20
2018-05-17T06:41:29.447Z,25.30
2018-05-17T06:43:56.995Z,26.67
2018-05-17T06:46:24.357Z,25.77
2018-05-17T06:48:51.812Z,23.00
2018-05-17T06:51:20.107Z,22.83
2018-05-17T06:53:48.331Z,21.40
2018-05-17T06:56:15.812Z,21.30
2018-05-17T06:58:43.248Z,18.97
2018-05-17T07:01:10.713Z,18.43
2018-05-17T07:03:38.156Z,18.50
2018-05-17T07:06:05.616Z,18.90
2018-05-17T07:08:33.149Z,18.90
2018-05-17T07:11:00.620Z,17.57
2018-05-17T07:13:28.073Z,18.43
2018-05-17T07:15:55.532Z,19.47
2018-05-17T07:18:23.159Z,19.03
2018-05-17T07:20:50.447Z,17.43
2018-05-17T07:23:18.819Z,18.90
2018-05-17T07:25:46.279Z,20.37
2018-05-17T07:28:14.022Z,19.13
2018-05-17T07:30:41.472Z,20.63
2018-05-17T07:33:08.915Z,17.00
2018-05-17T07:35:37.144Z,20.53
2018-05-17T07:38:04.614Z,21.33
2018-05-17T07:40:32.055Z,21.63
2018-05-17T07:42:59.507Z,20.97
2018-05-17T07:45:27.736Z,20.77
2018-05-17T07:47:55.192Z,19.17
2018-05-17T07:50:22.655Z,20.00
2018-05-17T07:52:50.107Z,18.50
2018-05-17T07:55:18.327Z,19.03
2018-05-17T07:57:45.783Z,18.67
2018-05-17T08:00:13.265Z,16.43
2018-05-17T08:02:40.736Z,16.60
2018-05-17T08:05:08.187Z,17.53
2018-05-17T08:07:35.635Z,16.13
2018-05-17T08:10:03.859Z,15.60
2018-05-17T08:12:31.322Z,16.30
2018-05-17T08:14:58.774Z,16.50
2018-05-17T08:17:26.289Z,14.90
2018-05-17T08:19:53.741Z,13.87
2018-05-17T08:22:21.197Z,14.30
2018-05-17T08:24:48.642Z,14.10
2018-05-17T08:27:16.871Z,13.90
2018-05-17T08:29:44.343Z,14.57
2018-05-17T08:32:11.799Z,16.63
2018-05-17T08:34:39.243Z,15.57
2018-05-17T08:37:06.701Z,13.97
2018-05-17T08:39:34.924Z,13.77
2018-05-17T08:42:02.384Z,12.93
2018-05-17T08:44:29.949Z,14.37
2018-05-17T08:46:58.169Z,14.03
2018-05-17T08:49:25.628Z,15.20
2018-05-17T08:51:53.083Z,14.60
2018-05-17T08:54:20.584Z,16.47
2018-05-17T08:56:47.979Z,15.17
2018-05-17T08:59:16.199Z,14.53
2018-05-17T09:01:43.654Z,13.97
2018-05-17T09:04:11.884Z,14.53
2018-05-17T09:06:39.345Z,13.23
2018-05-17T09:09:06.810Z,14.60
2018-05-17T09:11:34.259Z,13.37
2018-05-17T09:14:01.713Z,13.90
2018-05-17T09:16:29.927Z,13.30
2018-05-17T09:18:57.383Z,14.10
2018-05-17T09:21:24.846Z,12.60
2018-05-17T09:23:53.069Z,12.57
2018-05-17T09:26:20.511Z,14.27
2018-05-17T09:28:47.968Z,14.90
2018-05-17T09:31:15.425Z,15.53
2018-05-17T09:33:43.643Z,17.13
2018-05-17T09:36:11.093Z,16.30
2018-05-17T09:38:38.557Z,15.17
2018-05-17T09:41:06.018Z,18.40
2018-05-17T09:43:34.240Z,17.47
2018-05-17T09:46:01.683Z,16.63
2018-05-17T09:48:29.144Z,15.90
2018-05-17T09:50:57.362Z,16.50
2018-05-17T09:53:24.820Z,17.03
2018-05-17T09:55:52.263Z,16.37
2018-05-17T09:58:20.497Z,14.90
2018-05-17T10:00:47.961Z,13.80
2018-05-17T10:03:15.420Z,14.10
2018-05-17T10:05:42.867Z,13.47
2018-05-17T10:08:10.320Z,12.37
2018-05-17T10:10:38.543Z,13.47
2018-05-17T10:13:05.995Z,13.03
2018-05-17T10:15:33.520Z,12.63
2018-05-17T10:18:00.912Z,12.17
2018-05-17T10:20:29.129Z,13.03
2018-05-17T10:22:56.656Z,12.50
2018-05-17T10:25:24.803Z,11.50
2018-05-17T10:27:52.248Z,11.93
2018-05-17T10:30:19.731Z,10.90
2018-05-17T10:32:47.187Z,11.90
2018-05-17T10:35:14.686Z,11.57
2018-05-17T10:37:42.112Z,10.33
2018-05-17T10:40:11.167Z,10.40
2018-05-17T10:42:38.624Z,11.73
2018-05-17T10:45:06.088Z,12.53
2018-05-17T10:47:33.542Z,12.30
2018-05-17T10:50:01.003Z,12.13
2018-05-17T10:52:28.453Z,10.63
2018-05-17T10:54:56.678Z,11.03
2018-05-17T10:57:24.124Z,10.27
2018-05-17T10:59:51.596Z,11.40
2018-05-17T11:02:19.065Z,12.27
2018-05-17T11:04:46.508Z,14.87
2018-05-17T11:07:14.745Z,13.63
2018-05-17T11:09:42.195Z,12.90
2018-05-17T11:12:09.736Z,11.73
2018-05-17T11:14:37.863Z,12.83
2018-05-17T11:17:05.320Z,13.60
2018-05-17T11:19:32.777Z,14.53
2018-05-17T11:22:00.269Z,15.17
2018-05-17T11:24:27.712Z,14.50
2018-05-17T11:26:55.184Z,14.67
2018-05-17T11:29:23.395Z,13.93
2018-05-17T11:31:50.861Z,15.63
2018-05-17T11:34:18.311Z,16.23
2018-05-17T11:36:45.784Z,15.60
2018-05-17T11:39:13.227Z,14.87
2018-05-17T11:41:41.468Z,14.90
2018-05-17T11:44:08.997Z,13.23
2018-05-17T11:46:36.383Z,13.87
2018-05-17T11:49:03.831Z,14.40
2018-05-17T11:51:32.067Z,13.97
2018-05-17T11:53:59.517Z,13.60
2018-05-17T11:56:26.980Z,13.80
2018-05-17T11:58:54.427Z,12.13
2018-05-17T12:01:22.677Z,12.00
2018-05-17T12:03:50.111Z,12.70
2018-05-17T12:06:17.566Z,15.83
2018-05-17T12:11:36.390Z,17.13
2018-05-17T12:14:03.844Z,18.70
2018-05-17T12:16:31.317Z,19.27
2018-05-17T12:18:58.763Z,20.37
2018-05-17T12:21:26.211Z,17.80
2018-05-17T12:23:54.444Z,19.40
2018-05-17T12:26:21.898Z,18.27
2018-05-17T12:28:50.124Z,21.30
2018-05-17T12:31:17.571Z,19.17
2018-05-17T12:33:45.040Z,20.60
2018-05-17T12:36:12.492Z,19.33
2018-05-17T12:38:39.953Z,18.20
2018-05-17T12:41:07.406Z,20.53
2018-05-17T12:43:35.618Z,21.53
2018-05-17T12:46:03.076Z,19.33
2018-05-17T12:48:30.532Z,20.30
2018-05-17T12:50:58.832Z,17.97
2018-05-17T12:53:26.205Z,17.87
2018-05-17T12:55:53.688Z,17.40
2018-05-17T12:58:21.161Z,17.27
2018-05-17T13:00:48.613Z,18.13
2018-05-17T13:03:16.071Z,18.00
2018-05-17T13:05:44.291Z,17.80
2018-05-17T13:08:11.752Z,17.33
2018-05-17T13:10:39.198Z,19.90
2018-05-17T13:13:07.489Z,19.83
2018-05-17T13:15:34.872Z,19.57
2018-05-17T13:18:02.362Z,19.07
2018-05-17T13:20:29.799Z,18.87
2018-05-17T13:22:57.272Z,18.33
2018-05-17T13:25:24.732Z,18.07
2018-05-17T13:27:52.940Z,17.27
2018-05-17T13:30:20.498Z,16.70
2018-05-17T13:32:47.848Z,17.47
2018-05-17T13:35:16.077Z,16.80
2018-05-17T13:37:43.533Z,18.43
2018-05-17T13:40:11.000Z,18.47
2018-05-17T13:42:38.471Z,20.53
2018-05-17T13:45:05.938Z,20.20
2018-05-17T13:47:33.452Z,22.07
2018-05-17T13:50:00.865Z,20.27
2018-05-17T13:52:28.311Z,22.70
2018-05-17T13:54:56.541Z,21.63
2018-05-17T13:57:23.987Z,20.97
2018-05-17T13:59:51.443Z,20.17
2018-05-17T14:02:18.963Z,23.53
2018-05-17T14:04:47.131Z,23.33
2018-05-17T14:07:14.580Z,24.50
2018-05-17T14:09:42.112Z,24.60
2018-05-17T14:12:09.506Z,24.93
2018-05-17T14:14:37.731Z,24.20
2018-05-17T14:17:05.183Z,25.57
2018-05-17T14:19:32.645Z,27.17
2018-05-17T14:22:00.155Z,27.93
2018-05-17T14:24:27.624Z,25.77
2018-05-17T14:26:55.082Z,25.93
2018-05-17T14:29:22.536Z,27.73
2018-05-17T14:31:50.091Z,25.63
2018-05-17T14:34:17.440Z,25.20
2018-05-17T14:36:45.672Z,25.00
2018-05-17T14:39:13.133Z,26.77
2018-05-17T14:41:40.628Z,24.83
2018-05-17T14:44:08.071Z,24.17
2018-05-17T14:46:35.564Z,23.60
2018-05-17T14:49:03.103Z,23.20
2018-05-17T14:51:30.564Z,23.63
2018-05-17T14:53:58.017Z,23.13
2018-05-17T14:56:25.476Z,21.93
2018-05-17T14:58:53.689Z,21.03
2018-05-17T15:01:21.170Z,23.30
2018-05-17T15:03:48.605Z,22.93
2018-05-17T15:06:16.832Z,22.63
2018-05-17T15:08:44.403Z,22.33
2018-05-17T15:11:14.757Z,23.63
2018-05-17T15:13:39.211Z,22.60
2018-05-17T15:16:07.425Z,22.93
2018-05-17T15:18:35.002Z,23.10
2018-05-17T15:21:02.461Z,19.70
2018-05-17T15:23:29.916Z,23.00
2018-05-17T15:25:57.369Z,20.67
2018-05-17T15:28:25.600Z,22.00
2018-05-17T16:52:51.053Z,12.70
2018-05-17T16:55:18.399Z,10.97
2018-05-17T16:57:45.853Z,11.87
2018-05-17T17:00:14.078Z,11.93
2018-05-17T17:02:41.532Z,11.00
2018-05-17T17:05:09.117Z,11.50
2018-05-17T17:07:36.604Z,12.17
2018-05-17T17:10:04.005Z,10.87
2018-05-17T17:12:33.826Z,9.97
2018-05-17T17:15:01.272Z,9.37
2018-05-17T17:17:28.720Z,8.80
2018-05-17T17:19:56.172Z,9.10
2018-05-17T17:22:23.626Z,8.37
2018-05-17T17:24:51.117Z,8.10
2018-05-17T17:27:18.569Z,7.00
2018-05-17T17:29:46.037Z,7.20
2018-05-17T17:32:13.476Z,7.40
2018-05-17T17:34:41.096Z,6.60
2018-05-17T17:37:08.530Z,7.03
2018-05-17T17:39:36.761Z,6.90
2018-05-17T17:42:04.206Z,6.43
2018-05-17T17:44:31.660Z,7.03
2018-05-17T17:46:59.126Z,7.80
2018-05-17T17:49:27.337Z,8.20
2018-05-17T17:51:54.796Z,7.40
2018-05-17T17:54:22.259Z,7.30
2018-05-17T17:56:50.472Z,6.47
2018-05-17T17:59:17.942Z,5.90
2018-05-17T18:01:45.398Z,6.10
2018-05-17T18:04:12.844Z,5.90
2018-05-17T18:06:41.065Z,6.60
2018-05-17T18:09:08.513Z,6.50
2018-05-17T18:11:35.970Z,6.87
2018-05-17T18:14:04.183Z,5.93
2018-05-17T18:19:05.491Z,5.43
2018-05-17T18:21:32.967Z,5.40
2018-05-17T18:24:00.476Z,5.70
2018-05-17T18:26:27.876Z,5.00
2018-05-17T18:28:55.323Z,6.67
2018-05-17T18:31:22.784Z,5.20
2018-05-17T18:33:51.083Z,6.10
2018-05-17T18:36:18.453Z,5.93
2018-05-17T18:38:45.895Z,5.70
2018-05-17T18:41:14.656Z,6.10
2018-05-17T18:43:42.132Z,5.27
2018-05-17T18:46:09.604Z,5.80
2018-05-17T18:53:27.297Z,5.37
2018-05-17T18:55:54.811Z,6.57
2018-05-17T18:58:22.201Z,5.63
2018-05-17T19:00:49.678Z,5.13
2018-05-17T19:03:17.128Z,5.70
2018-05-17T19:05:44.593Z,5.37
2018-05-17T19:08:12.801Z,6.03
2018-05-17T19:10:40.253Z,6.10
2018-05-17T19:13:07.711Z,5.90
2018-05-17T19:15:35.928Z,5.23
2018-05-17T19:18:03.390Z,5.33
2018-05-17T19:20:30.907Z,5.87
2018-05-17T19:22:58.296Z,6.03
2018-05-17T19:25:26.515Z,5.67
2018-05-17T19:27:53.972Z,5.27
2018-05-17T19:30:21.415Z,5.73
2018-05-17T19:32:49.639Z,5.07
2018-05-17T19:35:17.084Z,5.07
2018-05-17T19:37:45.299Z,6.00
2018-05-17T19:40:12.766Z,5.57
2018-05-17T19:42:40.220Z,5.40
2018-05-17T19:45:07.676Z,5.77
2018-05-17T19:47:35.982Z,6.07
2018-05-17T19:50:03.427Z,5.40
2018-05-17T19:52:32.624Z,5.60
2018-05-17T19:55:00.831Z,5.77
2018-05-17T19:57:28.294Z,5.80
2018-05-17T19:59:56.544Z,5.93
2018-05-17T20:02:23.989Z,5.70
2018-05-17T20:04:51.480Z,6.27
2018-05-17T20:07:18.904Z,5.33
2018-05-17T20:09:46.356Z,5.57
2018-05-17T20:12:14.576Z,5.50
2018-05-17T20:14:42.031Z,5.53
2018-05-17T20:17:09.531Z,5.60
2018-05-17T20:19:36.984Z,5.43
2018-05-17T20:22:04.459Z,5.90
2018-05-17T20:24:31.959Z,5.90
2018-05-17T20:26:59.496Z,5.17
2018-05-17T20:29:26.947Z,5.50
2018-05-17T20:31:54.396Z,4.87
2018-05-17T20:34:22.615Z,5.90
2018-05-17T20:36:50.064Z,4.90
2018-05-17T20:39:17.525Z,5.57
2018-05-17T20:41:45.736Z,5.73
2018-05-17T20:44:13.198Z,5.80
2018-05-17T20:46:40.648Z,4.87
2018-05-17T20:49:08.899Z,5.10
2018-05-17T20:51:36.347Z,4.83
2018-05-17T20:54:03.808Z,5.73
2018-05-17T20:56:31.253Z,5.73
2018-05-17T20:58:58.700Z,6.30
2018-05-17T21:01:26.925Z,5.53
2018-05-17T21:03:54.368Z,5.73
2018-05-17T21:06:21.828Z,5.47
2018-05-17T21:08:50.035Z,4.77
2018-05-17T21:11:17.501Z,5.27
2018-05-17T21:13:45.006Z,5.40
2018-05-17T21:16:12.484Z,5.93
2018-05-17T21:18:39.921Z,5.87
2018-05-17T21:21:07.382Z,5.13
2018-05-17T21:23:34.829Z,4.80
2018-05-17T21:26:03.052Z,5.20
2018-05-17T21:28:30.497Z,5.70
2018-05-17T21:30:57.957Z,5.47
2018-05-17T21:33:26.172Z,5.00
2018-05-17T21:35:53.632Z,5.60
2018-05-17T21:38:21.077Z,5.73
2018-05-17T21:40:49.312Z,5.97
2018-05-17T21:43:16.764Z,6.10
2018-05-17T21:45:44.221Z,5.40
2018-05-17T21:48:11.662Z,5.97
2018-05-17T21:50:39.879Z,5.90
2018-05-17T21:53:07.401Z,6.50
2018-05-17T21:55:35.678Z,5.27
2018-05-17T21:58:03.016Z,5.13
2018-05-17T22:00:30.463Z,5.10
2018-05-17T22:02:57.937Z,5.07
2018-05-17T22:05:25.388Z,5.53
2018-05-17T22:07:53.625Z,5.03
2018-05-17T22:10:21.080Z,5.13
2018-05-17T22:12:48.530Z,5.83
2018-05-17T22:15:15.980Z,5.40
2018-05-17T22:17:44.197Z,4.50
2018-05-17T22:20:11.643Z,5.40
2018-05-17T22:22:39.108Z,5.20
2018-05-17T22:25:07.319Z,5.20
2018-05-17T22:27:34.787Z,5.73
2018-05-17T22:30:02.300Z,5.60
2018-05-17T22:32:29.759Z,5.50
2018-05-17T22:34:57.235Z,5.10
2018-05-17T22:37:24.703Z,4.93
2018-05-17T22:39:52.152Z,5.03
2018-05-17T22:42:19.603Z,5.27
2018-05-17T22:44:47.056Z,6.77
2018-05-17T22:47:14.520Z,6.03
2018-05-17T22:49:41.968Z,5.70
2018-05-17T22:52:09.418Z,5.33
2018-05-17T22:54:36.858Z,5.57
2018-05-17T22:57:12.144Z,6.23
2018-05-17T22:59:39.585Z,4.37
2018-05-17T23:02:07.044Z,4.77
2018-05-17T23:04:34.496Z,5.30
2018-05-17T23:07:01.957Z,5.00
2018-05-17T23:09:29.408Z,5.00
2018-05-17T23:11:57.640Z,6.60
2018-05-17T23:14:25.076Z,5.77
2018-05-17T23:16:52.524Z,5.00
2018-05-17T23:19:19.980Z,5.87
2018-05-17T23:21:47.423Z,5.20
2018-05-17T23:24:14.884Z,5.23
2018-05-17T23:26:42.410Z,5.40
2018-05-17T23:29:10.623Z,5.40
2018-05-17T23:31:38.067Z,5.47
2018-05-17T23:34:06.293Z,5.47
2018-05-17T23:36:33.745Z,5.40
2018-05-17T23:39:01.192Z,5.67
2018-05-17T23:41:35.272Z,5.37
2018-05-17T23:44:02.728Z,4.97
2018-05-17T23:46:30.167Z,5.80
2018-05-17T23:48:57.636Z,4.93
2018-05-17T23:51:25.075Z,5.57
2018-05-17T23:53:52.539Z,5.30
2018-05-17T23:56:19.984Z,5.67
2018-05-17T23:58:47.462Z,6.57
